Time,TemperatureF,DewpointF,PressureIn,WindDirection,WindDirectionDegrees,WindSpeedMPH,WindSpeedGustMPH,Humidity,HourlyPrecipIn,Conditions,Clouds,dailyrainin,SoftwareType,DateUTC
2013-02-25 00:08:00,60.1,59.5,29.56,SSE,157,5.1,-999.0,98,-99.99,,,0.05,Acu-Link.com,2013-02-25 06:08:00,
2013-02-25 00:23:00,60.6,60.1,29.51,South,180,5.8,-999.0,98,-99.99,,,0.11,Acu-Link.com,2013-02-25 06:23:00,
2013-02-25 00:38:00,61.0,60.4,29.51,SSW,202,2.7,-999.0,98,-99.99,,,0.20,Acu-Link.com,2013-02-25 06:38:00,
2013-02-25 00:53:00,61.5,60.9,29.56,South,180,2.2,-999.0,98,-99.99,,,0.22,Acu-Link.com,2013-02-25 06:53:00,
2013-02-25 01:09:00,61.5,60.9,29.53,South,180,4.3,-999.0,98,-99.99,,,0.27,Acu-Link.com,2013-02-25 07:09:00,
2013-02-25 01:24:00,61.3,60.8,29.52,WSW,247,8.9,-999.0,98,-99.99,,,0.27,Acu-Link.com,2013-02-25 07:24:00,
2013-02-25 01:39:00,61.5,60.9,29.51,East,90,6.3,-999.0,98,-99.99,,,0.30,Acu-Link.com,2013-02-25 07:39:00,
2013-02-25 01:55:00,61.5,60.9,29.49,SE,135,3.8,-999.0,98,-99.99,,,0.31,Acu-Link.com,2013-02-25 07:55:00,
2013-02-25 02:10:00,61.7,61.1,29.48,SE,135,4.7,-999.0,98,-99.99,,,0.40,Acu-Link.com,2013-02-25 08:10:00,
2013-02-25 02:25:00,61.7,61.1,29.50,SSE,157,3.8,-999.0,98,-99.99,,,0.45,Acu-Link.com,2013-02-25 08:25:00,
2013-02-25 02:40:00,61.7,61.1,29.48,SSE,157,4.3,-999.0,98,-99.99,,,0.72,Acu-Link.com,2013-02-25 08:40:00,
2013-02-25 02:56:00,61.9,61.3,29.49,ESE,112,6.3,-999.0,98,-99.99,,,1.59,Acu-Link.com,2013-02-25 08:56:00,
2013-02-25 03:17:00,61.9,61.3,29.49,SSW,202,4.7,-999.0,98,-99.99,,,1.59,Acu-Link.com,2013-02-25 09:17:00,
2013-02-25 03:32:00,62.1,61.5,29.46,SSW,202,3.8,-999.0,98,-99.99,,,1.70,Acu-Link.com,2013-02-25 09:32:00,
2013-02-25 03:48:00,62.1,61.5,29.46,ESE,112,1.1,-999.0,98,-99.99,,,1.72,Acu-Link.com,2013-02-25 09:48:00,
2013-02-25 04:03:00,61.9,61.3,29.47,ESE,112,1.6,-999.0,98,-99.99,,,1.72,Acu-Link.com,2013-02-25 10:03:00,
2013-02-25 04:18:00,62.1,61.5,29.47,ESE,112,3.1,-999.0,98,-99.99,,,1.73,Acu-Link.com,2013-02-25 10:18:00,
2013-02-25 04:33:00,61.9,61.3,29.48,SW,225,1.6,-999.0,98,-99.99,,,1.74,Acu-Link.com,2013-02-25 10:33:00,
2013-02-25 04:48:00,61.7,61.1,29.50,ESE,112,3.8,-999.0,98,-99.99,,,1.82,Acu-Link.com,2013-02-25 10:48:00,
2013-02-25 05:04:00,61.7,61.1,29.47,East,90,3.8,-999.0,98,-99.99,,,1.85,Acu-Link.com,2013-02-25 11:04:00,
2013-02-25 05:19:00,61.9,61.3,29.48,ENE,67,5.8,-999.0,98,-99.99,,,1.85,Acu-Link.com,2013-02-25 11:19:00,
2013-02-25 05:34:00,62.1,61.5,29.47,ESE,112,4.3,-999.0,98,-99.99,,,1.85,Acu-Link.com,2013-02-25 11:34:00,
2013-02-25 05:49:00,62.1,61.5,29.48,SE,135,5.1,-999.0,98,-99.99,,,1.85,Acu-Link.com,2013-02-25 11:49:00,
2013-02-25 06:04:00,61.9,61.3,29.48,SE,135,4.3,-999.0,98,-99.99,,,1.85,Acu-Link.com,2013-02-25 12:04:00,
2013-02-25 06:19:00,61.9,61.3,29.48,SE,135,4.7,-999.0,98,-99.99,,,1.85,Acu-Link.com,2013-02-25 12:19:00,
2013-02-25 06:34:00,61.9,61.3,29.48,SSE,157,3.8,-999.0,98,-99.99,,,1.85,Acu-Link.com,2013-02-25 12:34:00,
2013-02-25 06:50:00,62.1,61.5,29.48,SSE,157,3.1,-999.0,98,-99.99,,,1.85,Acu-Link.com,2013-02-25 12:50:00,
2013-02-25 07:05:00,62.1,61.5,29.49,ESE,112,3.8,-999.0,98,-99.99,,,1.85,Acu-Link.com,2013-02-25 13:05:00,
2013-02-25 07:20:00,62.2,61.7,29.50,ESE,112,2.7,-999.0,98,-99.99,,,1.85,Acu-Link.com,2013-02-25 13:20:00,
2013-02-25 07:35:00,62.4,61.8,29.49,ESE,112,3.8,-999.0,98,-99.99,,,1.85,Acu-Link.com,2013-02-25 13:35:00,
2013-02-25 07:51:00,62.4,61.8,29.49,ESE,112,4.7,-999.0,98,-99.99,,,1.85,Acu-Link.com,2013-02-25 13:51:00,
2013-02-25 08:06:00,62.4,61.8,29.50,SE,135,6.7,-999.0,98,-99.99,,,1.86,Acu-Link.com,2013-02-25 14:06:00,
2013-02-25 08:21:00,62.4,61.8,29.50,NNE,22,2.7,-999.0,98,-99.99,,,1.86,Acu-Link.com,2013-02-25 14:21:00,
2013-02-25 08:36:00,62.8,62.2,29.50,SSE,157,2.2,-999.0,98,-99.99,,,1.86,Acu-Link.com,2013-02-25 14:36:00,
2013-02-25 08:51:00,63.0,62.4,29.50,South,180,4.7,-999.0,98,-99.99,,,1.86,Acu-Link.com,2013-02-25 14:51:00,
2013-02-25 09:07:00,63.1,62.6,29.50,SE,135,5.1,-999.0,98,-99.99,,,1.86,Acu-Link.com,2013-02-25 15:07:00,
2013-02-25 09:22:00,63.5,62.9,29.49,ESE,112,1.6,-999.0,98,-99.99,,,1.86,Acu-Link.com,2013-02-25 15:22:00,
2013-02-25 09:37:00,63.3,62.7,29.50,SSE,157,4.3,-999.0,98,-99.99,,,1.86,Acu-Link.com,2013-02-25 15:37:00,
2013-02-25 09:52:00,63.9,63.3,29.49,ESE,112,2.7,-999.0,98,-99.99,,,1.86,Acu-Link.com,2013-02-25 15:52:00,
2013-02-25 10:07:00,64.2,63.6,29.49,SSE,157,3.8,-999.0,98,-99.99,,,1.86,Acu-Link.com,2013-02-25 16:07:00,
2013-02-25 10:23:00,64.6,64.0,29.50,East,90,5.1,-999.0,98,-99.99,,,1.86,Acu-Link.com,2013-02-25 16:23:00,
2013-02-25 10:38:00,64.6,64.0,29.50,South,180,3.1,-999.0,98,-99.99,,,1.86,Acu-Link.com,2013-02-25 16:38:00,
2013-02-25 10:53:00,64.9,64.4,29.50,NE,45,4.3,-999.0,98,-99.99,,,1.86,Acu-Link.com,2013-02-25 16:53:00,
2013-02-25 11:08:00,64.6,64.0,29.49,ESE,112,2.7,-999.0,98,-99.99,,,1.86,Acu-Link.com,2013-02-25 17:08:00,
2013-02-25 11:23:00,64.6,64.0,29.48,SE,135,3.8,-999.0,98,-99.99,,,1.86,Acu-Link.com,2013-02-25 17:23:00,
2013-02-25 11:38:00,64.6,64.0,29.47,East,90,3.1,-999.0,98,-99.99,,,1.86,Acu-Link.com,2013-02-25 17:38:00,
2013-02-25 11:54:00,64.2,63.6,29.46,ESE,112,6.3,-999.0,98,-99.99,,,1.86,Acu-Link.com,2013-02-25 17:54:00,
2013-02-25 12:09:00,64.2,63.6,29.44,East,90,5.8,-999.0,98,-99.99,,,1.87,Acu-Link.com,2013-02-25 18:09:00,
2013-02-25 12:24:00,64.2,63.6,29.41,ESE,112,9.4,-999.0,98,-99.99,,,1.87,Acu-Link.com,2013-02-25 18:24:00,
2013-02-25 12:39:00,64.2,63.6,29.40,SE,135,5.1,-999.0,98,-99.99,,,1.87,Acu-Link.com,2013-02-25 18:39:00,
2013-02-25 12:55:00,63.7,63.1,29.42,ESE,112,3.8,-999.0,98,-99.99,,,1.87,Acu-Link.com,2013-02-25 18:55:00,
2013-02-25 13:10:00,63.3,62.7,29.39,ESE,112,4.7,-999.0,98,-99.99,,,1.87,Acu-Link.com,2013-02-25 19:10:00,
2013-02-25 13:25:00,63.0,62.4,29.38,ESE,112,9.4,-999.0,98,-99.99,,,1.87,Acu-Link.com,2013-02-25 19:25:00,
2013-02-25 13:41:00,62.4,61.8,29.37,SSE,157,3.1,-999.0,98,-99.99,,,1.87,Acu-Link.com,2013-02-25 19:41:00,
2013-02-25 13:56:00,62.4,61.8,29.35,NE,45,4.7,-999.0,98,-99.99,,,1.87,Acu-Link.com,2013-02-25 19:56:00,
2013-02-25 14:11:00,62.4,61.8,29.35,SSW,202,5.1,-999.0,98,-99.99,,,1.87,Acu-Link.com,2013-02-25 20:11:00,
2013-02-25 14:26:00,62.6,62.0,29.32,ENE,67,5.8,-999.0,98,-99.99,,,1.87,Acu-Link.com,2013-02-25 20:26:00,
2013-02-25 14:41:00,62.8,62.2,29.32,East,90,3.8,-999.0,98,-99.99,,,1.87,Acu-Link.com,2013-02-25 20:41:00,
2013-02-25 14:57:00,62.2,61.7,29.32,ESE,112,3.8,-999.0,98,-99.99,,,1.93,Acu-Link.com,2013-02-25 20:57:00,
2013-02-25 15:12:00,62.4,61.8,29.31,SSE,157,5.8,-999.0,98,-99.99,,,1.94,Acu-Link.com,2013-02-25 21:12:00,
2013-02-25 15:27:00,62.2,61.7,29.30,North,0,4.3,-999.0,98,-99.99,,,1.94,Acu-Link.com,2013-02-25 21:27:00,
2013-02-25 15:42:00,62.1,61.5,29.30,SSE,157,4.3,-999.0,98,-99.99,,,1.94,Acu-Link.com,2013-02-25 21:42:00,
2013-02-25 15:57:00,61.7,61.1,29.30,SSE,157,7.8,-999.0,98,-99.99,,,1.95,Acu-Link.com,2013-02-25 21:57:00,
2013-02-25 16:12:00,61.9,61.3,29.29,ESE,112,6.3,-999.0,98,-99.99,,,1.96,Acu-Link.com,2013-02-25 22:12:00,
2013-02-25 16:27:00,61.9,61.3,29.25,ESE,112,6.7,-999.0,98,-99.99,,,1.96,Acu-Link.com,2013-02-25 22:27:00,
2013-02-25 16:43:00,62.2,61.7,29.23,ESE,112,6.3,-999.0,98,-99.99,,,1.98,Acu-Link.com,2013-02-25 22:43:00,
2013-02-25 16:58:00,62.2,61.7,29.24,SSW,202,9.4,-999.0,98,-99.99,,,1.98,Acu-Link.com,2013-02-25 22:58:00,
2013-02-25 17:13:00,62.2,61.7,29.24,ESE,112,2.7,-999.0,98,-99.99,,,1.98,Acu-Link.com,2013-02-25 23:13:00,
2013-02-25 17:29:00,62.4,61.8,29.24,South,180,3.1,-999.0,98,-99.99,,,1.98,Acu-Link.com,2013-02-25 23:29:00,
2013-02-25 17:44:00,62.6,62.0,29.25,South,180,0.0,-999.0,98,-99.99,,,1.98,Acu-Link.com,2013-02-25 23:44:00,
2013-02-25 17:59:00,62.8,62.2,29.26,SW,225,1.6,-999.0,98,-99.99,,,1.98,Acu-Link.com,2013-02-25 23:59:00,
2013-02-25 18:14:00,63.0,62.4,29.28,SSW,202,1.1,-999.0,98,-99.99,,,1.98,Acu-Link.com,2013-02-26 00:14:00,
2013-02-25 18:29:00,63.3,62.7,29.27,South,180,1.6,-999.0,98,-99.99,,,1.98,Acu-Link.com,2013-02-26 00:29:00,
2013-02-25 18:45:00,63.7,63.1,29.27,North,0,0.0,-999.0,98,-99.99,,,2.03,Acu-Link.com,2013-02-26 00:45:00,
2013-02-25 19:00:00,64.2,63.6,29.28,WSW,247,2.2,-999.0,98,-99.99,,,2.07,Acu-Link.com,2013-02-26 01:00:00,
2013-02-25 19:15:00,65.3,64.7,29.28,SW,225,3.8,-999.0,98,-99.99,,,2.10,Acu-Link.com,2013-02-26 01:15:00,
2013-02-25 19:30:00,66.0,65.4,29.28,West,270,3.8,-999.0,98,-99.99,,,2.10,Acu-Link.com,2013-02-26 01:30:00,
2013-02-25 19:45:00,66.2,65.6,29.28,SW,225,3.8,-999.0,98,-99.99,,,2.10,Acu-Link.com,2013-02-26 01:45:00,
2013-02-25 20:01:00,65.8,65.3,29.27,WSW,247,4.3,-999.0,98,-99.99,,,2.10,Acu-Link.com,2013-02-26 02:01:00,
2013-02-25 20:16:00,65.1,64.5,29.28,SSW,202,4.3,-999.0,98,-99.99,,,2.10,Acu-Link.com,2013-02-26 02:16:00,
2013-02-25 20:31:00,64.0,63.5,29.29,SSW,202,6.7,-999.0,98,-99.99,,,2.10,Acu-Link.com,2013-02-26 02:31:00,
2013-02-25 20:47:00,63.7,63.1,29.30,West,270,7.8,-999.0,98,-99.99,,,2.10,Acu-Link.com,2013-02-26 02:47:00,
2013-02-25 21:02:00,62.6,62.0,29.29,SSW,202,9.4,-999.0,98,-99.99,,,2.10,Acu-Link.com,2013-02-26 03:02:00,
2013-02-25 21:17:00,62.2,61.7,29.31,South,180,7.4,-999.0,98,-99.99,,,2.10,Acu-Link.com,2013-02-26 03:17:00,
2013-02-25 21:33:00,62.2,60.8,29.30,West,270,7.8,-999.0,95,-99.99,,,2.10,Acu-Link.com,2013-02-26 03:33:00,
2013-02-25 21:48:00,61.5,57.3,29.32,SW,225,5.8,-999.0,86,-99.99,,,2.10,Acu-Link.com,2013-02-26 03:48:00,
2013-02-25 22:03:00,61.7,56.1,29.32,East,90,5.8,-999.0,82,-99.99,,,2.10,Acu-Link.com,2013-02-26 04:03:00,
2013-02-25 22:18:00,61.5,54.9,29.35,NNW,337,7.8,-999.0,79,-99.99,,,2.10,Acu-Link.com,2013-02-26 04:18:00,
2013-02-25 22:33:00,61.0,54.8,29.36,WSW,247,2.7,-999.0,80,-99.99,,,2.10,Acu-Link.com,2013-02-26 04:33:00,
2013-02-25 22:49:00,60.3,54.1,29.36,WSW,247,4.7,-999.0,80,-99.99,,,2.10,Acu-Link.com,2013-02-26 04:49:00,
2013-02-25 23:04:00,57.7,50.9,29.36,SSW,202,3.8,-999.0,78,-99.99,,,2.10,Acu-Link.com,2013-02-26 05:04:00,
2013-02-25 23:19:00,58.6,50.4,29.38,West,270,5.8,-999.0,74,-99.99,,,2.10,Acu-Link.com,2013-02-26 05:19:00,
2013-02-25 23:35:00,57.2,49.0,29.38,NNW,337,4.3,-999.0,74,-99.99,,,2.10,Acu-Link.com,2013-02-26 05:35:00,
2013-02-25 23:50:00,56.1,49.0,29.37,West,270,11.4,-999.0,77,-99.99,,,2.10,Acu-Link.com,2013-02-26 05:50:00,